createdAt,value
2019-02-21T00:00:59.095Z,5.20
2019-02-21T00:03:27.994Z,5.30
2019-02-21T00:05:56.828Z,5.30
2019-02-21T00:08:26.443Z,5.30
2019-02-21T00:10:56.049Z,5.40
2019-02-21T00:13:24.907Z,5.30
2019-02-21T00:15:53.807Z,5.40
2019-02-21T00:18:22.653Z,5.30
2019-02-21T00:20:51.511Z,5.30
2019-02-21T00:23:20.407Z,5.20
2019-02-21T00:25:49.247Z,5.10
2019-02-21T00:28:18.105Z,5.10
2019-02-21T00:30:47.001Z,5.10
2019-02-21T00:33:15.886Z,5.20
2019-02-21T00:35:44.735Z,5.10
2019-02-21T00:38:14.347Z,5.00
2019-02-21T00:40:43.957Z,5.00
2019-02-21T00:43:12.819Z,5.00
2019-02-21T00:45:41.697Z,5.10
2019-02-21T00:48:10.554Z,5.00
2019-02-21T00:50:39.415Z,4.90
2019-02-21T00:53:08.279Z,4.90
2019-02-21T00:55:37.157Z,4.90
2019-02-21T00:58:06.079Z,4.80
2019-02-21T01:00:45.733Z,4.80
2019-02-21T01:03:04.591Z,4.80
2019-02-21T01:05:33.415Z,4.80
2019-02-21T01:08:02.273Z,4.80
2019-02-21T01:10:31.137Z,4.90
2019-02-21T01:13:00.743Z,4.80
2019-02-21T01:15:29.613Z,4.90
2019-02-21T01:17:58.507Z,4.90
2019-02-21T01:20:27.345Z,4.90
2019-02-21T01:22:56.203Z,4.80
2019-02-21T01:25:25.060Z,4.90
2019-02-21T01:27:53.909Z,4.90
2019-02-21T01:30:22.774Z,4.80
2019-02-21T01:32:51.637Z,4.80
2019-02-21T01:35:20.497Z,4.90
2019-02-21T01:37:49.361Z,4.90
2019-02-21T01:40:18.211Z,4.90
2019-02-21T01:42:47.827Z,4.90
2019-02-21T01:47:46.257Z,4.90
2019-02-21T01:50:15.136Z,4.90
2019-02-21T01:52:46.086Z,5.00
2019-02-21T01:55:16.670Z,5.00
2019-02-21T01:57:46.253Z,5.00
2019-02-21T02:00:15.114Z,5.20
2019-02-21T02:02:43.991Z,5.20
2019-02-21T02:05:13.617Z,5.20
2019-02-21T02:07:42.517Z,5.20
2019-02-21T02:10:11.401Z,5.10
2019-02-21T02:12:40.281Z,5.10
2019-02-21T02:15:09.216Z,5.10
2019-02-21T02:17:38.091Z,5.00
2019-02-21T02:20:07.001Z,5.00
2019-02-21T02:22:35.884Z,4.90
2019-02-21T02:25:04.867Z,5.00
2019-02-21T02:27:33.705Z,5.00
2019-02-21T02:30:02.596Z,5.00
2019-02-21T02:32:31.501Z,5.00
2019-02-21T02:35:00.493Z,5.00
2019-02-21T02:37:29.222Z,5.00
2019-02-21T02:39:58.099Z,5.00
2019-02-21T02:42:26.983Z,5.00
2019-02-21T02:44:55.835Z,5.00
2019-02-21T02:47:25.437Z,4.90
2019-02-21T02:49:54.317Z,4.90
2019-02-21T02:52:23.913Z,5.00
2019-02-21T02:54:53.545Z,5.00
2019-02-21T02:57:23.153Z,5.00
2019-02-21T02:59:52.002Z,4.90
2019-02-21T03:02:20.846Z,4.90
2019-02-21T03:04:49.729Z,4.90
2019-02-21T03:07:18.613Z,5.00
2019-02-21T03:09:47.479Z,5.00
2019-02-21T03:12:16.467Z,5.00
2019-02-21T03:17:14.792Z,5.00
2019-02-21T03:19:43.717Z,5.00
2019-02-21T03:22:12.526Z,5.10
2019-02-21T03:24:41.369Z,5.00
2019-02-21T03:27:10.961Z,5.00
2019-02-21T03:29:39.806Z,5.00
2019-02-21T03:32:08.682Z,5.00
2019-02-21T03:34:37.596Z,5.00
2019-02-21T03:37:06.417Z,5.10
2019-02-21T03:39:35.289Z,5.10
2019-02-21T03:42:04.901Z,5.10
2019-02-21T03:44:34.513Z,5.00
2019-02-21T03:47:03.421Z,5.00
2019-02-21T03:49:32.304Z,5.10
2019-02-21T03:52:01.165Z,5.10
2019-02-21T03:54:30.041Z,5.10
2019-02-21T03:56:58.912Z,5.10
2019-02-21T03:59:27.776Z,5.30
2019-02-21T04:02:04.844Z,5.20
2019-02-21T04:04:26.369Z,5.20
2019-02-21T04:06:55.285Z,5.30
2019-02-21T04:09:24.124Z,5.30
2019-02-21T04:11:52.944Z,5.30
2019-02-21T04:14:21.806Z,5.30
2019-02-21T04:16:50.675Z,5.30
2019-02-21T04:19:19.549Z,5.30
2019-02-21T04:21:48.411Z,5.30
2019-02-21T04:24:17.269Z,5.30
2019-02-21T04:26:46.151Z,5.30
2019-02-21T04:29:15.767Z,5.30
2019-02-21T04:31:44.636Z,5.30
2019-02-21T04:34:13.493Z,5.20
2019-02-21T04:36:42.391Z,5.20
2019-02-21T04:39:11.215Z,5.20
2019-02-21T04:41:40.080Z,5.10
2019-02-21T04:44:08.943Z,5.30
2019-02-21T04:46:37.832Z,5.20
2019-02-21T04:49:06.655Z,5.20
2019-02-21T04:54:04.959Z,5.30
2019-02-21T04:56:33.815Z,5.20
2019-02-21T04:59:02.741Z,5.20
2019-02-21T05:01:31.582Z,5.30
2019-02-21T05:04:00.429Z,5.20
2019-02-21T05:06:29.306Z,5.20
2019-02-21T05:08:58.231Z,5.20
2019-02-21T05:11:27.802Z,5.20
2019-02-21T05:13:57.395Z,5.20
2019-02-21T05:16:26.254Z,5.30
2019-02-21T05:18:55.123Z,5.30
2019-02-21T05:21:24.010Z,5.30
2019-02-21T05:23:52.903Z,5.30
2019-02-21T05:26:24.219Z,5.30
2019-02-21T05:28:53.823Z,5.30
2019-02-21T05:31:25.592Z,5.40
2019-02-21T05:33:55.313Z,5.50
2019-02-21T05:36:26.139Z,5.40
2019-02-21T05:38:57.651Z,5.40
2019-02-21T05:41:27.401Z,5.40
2019-02-21T05:43:57.090Z,5.30
2019-02-21T05:46:27.831Z,5.30
2019-02-21T05:48:57.498Z,5.20
2019-02-21T05:51:27.054Z,5.10
2019-02-21T05:53:57.466Z,5.20
2019-02-21T05:56:29.210Z,5.10
2019-02-21T05:59:00.828Z,5.10
2019-02-21T06:01:35.639Z,5.10
2019-02-21T06:04:05.224Z,5.00
2019-02-21T06:06:34.840Z,5.00
2019-02-21T06:09:06.784Z,4.90
2019-02-21T06:11:37.516Z,4.90
2019-02-21T06:14:07.138Z,4.80
2019-02-21T06:16:36.746Z,4.80
2019-02-21T06:19:07.208Z,4.80
2019-02-21T06:21:41.689Z,4.80
2019-02-21T06:24:11.335Z,4.80
2019-02-21T06:26:41.089Z,4.80
2019-02-21T06:29:10.013Z,4.80
2019-02-21T06:31:38.833Z,4.80
2019-02-21T06:34:07.699Z,4.80
2019-02-21T06:36:36.567Z,4.80
2019-02-21T06:39:05.446Z,4.80
2019-02-21T06:41:34.351Z,4.90
2019-02-21T06:44:03.993Z,5.00
2019-02-21T06:46:32.847Z,5.00
2019-02-21T06:49:01.738Z,5.10
2019-02-21T06:51:30.647Z,5.10
2019-02-21T06:53:59.535Z,5.10
2019-02-21T06:56:28.419Z,5.10
2019-02-21T06:58:57.343Z,5.10
2019-02-21T07:01:29.418Z,5.00
2019-02-21T07:03:55.280Z,5.00
2019-02-21T07:06:32.030Z,5.10
2019-02-21T07:08:54.274Z,5.20
2019-02-21T07:11:25.129Z,5.10
2019-02-21T07:13:51.666Z,5.20
2019-02-21T07:16:20.700Z,5.30
2019-02-21T07:18:49.601Z,5.20
2019-02-21T07:21:18.503Z,5.30
2019-02-21T07:23:47.365Z,5.20
2019-02-21T07:26:16.244Z,5.20
2019-02-21T07:28:45.153Z,5.30
2019-02-21T07:31:14.047Z,5.30
2019-02-21T07:33:42.936Z,5.40
2019-02-21T07:36:11.830Z,5.40
2019-02-21T07:38:40.728Z,5.40
2019-02-21T07:41:09.863Z,5.40
2019-02-21T07:43:38.660Z,5.50
2019-02-21T07:46:07.593Z,5.50
2019-02-21T07:48:36.701Z,5.50
2019-02-21T07:51:05.368Z,5.50
2019-02-21T07:53:34.347Z,5.60
2019-02-21T07:56:03.220Z,5.60
2019-02-21T07:58:32.109Z,5.60
2019-02-21T08:01:01.231Z,5.60
2019-02-21T08:03:43.113Z,5.70
2019-02-21T08:05:59.139Z,5.70
2019-02-21T08:08:28.097Z,5.70
2019-02-21T08:10:56.986Z,5.90
2019-02-21T08:13:25.852Z,5.90
2019-02-21T08:15:54.754Z,5.90
2019-02-21T08:18:23.637Z,5.90
2019-02-21T08:20:52.674Z,6.00
2019-02-21T08:23:21.624Z,6.10
2019-02-21T08:25:50.488Z,6.10
2019-02-21T08:28:20.139Z,6.10
2019-02-21T08:30:49.047Z,6.20
2019-02-21T08:33:18.051Z,6.30
2019-02-21T08:35:46.993Z,6.30
2019-02-21T08:38:15.894Z,6.40
2019-02-21T08:40:44.803Z,6.50
2019-02-21T08:43:13.685Z,6.50
2019-02-21T08:45:42.830Z,6.50
2019-02-21T08:48:13.488Z,6.60
2019-02-21T08:50:40.646Z,6.70
2019-02-21T08:53:09.562Z,6.70
2019-02-21T08:55:40.395Z,6.80
2019-02-21T08:58:07.979Z,6.80
2019-02-21T09:00:36.501Z,6.90
2019-02-21T09:03:06.157Z,6.90
2019-02-21T09:05:35.122Z,7.00
2019-02-21T09:08:04.496Z,7.10
2019-02-21T09:10:33.424Z,7.20
2019-02-21T09:13:03.203Z,7.30
2019-02-21T09:15:32.840Z,7.40
2019-02-21T09:18:01.732Z,7.40
2019-02-21T09:20:30.693Z,7.50
2019-02-21T09:23:01.514Z,7.50
2019-02-21T09:25:30.509Z,7.70
2019-02-21T09:27:59.990Z,7.80
2019-02-21T09:30:28.397Z,8.00
2019-02-21T09:32:58.006Z,8.10
2019-02-21T09:35:27.818Z,8.20
2019-02-21T09:37:56.708Z,8.30
2019-02-21T09:40:25.584Z,8.40
2019-02-21T09:42:54.475Z,8.40
2019-02-21T09:45:23.394Z,8.50
2019-02-21T09:47:52.238Z,8.50
2019-02-21T09:50:21.128Z,8.60
2019-02-21T09:52:50.046Z,8.70
2019-02-21T09:55:18.897Z,8.70
2019-02-21T09:57:47.822Z,8.70
2019-02-21T10:00:16.692Z,8.70
2019-02-21T10:02:45.610Z,8.70
2019-02-21T10:05:14.494Z,8.70
2019-02-21T10:07:43.402Z,8.60
2019-02-21T10:10:12.266Z,8.60
2019-02-21T10:15:11.409Z,8.80
2019-02-21T10:17:40.345Z,8.80
2019-02-21T10:20:09.235Z,9.10
2019-02-21T10:22:38.129Z,9.20
2019-02-21T10:25:07.796Z,9.50
2019-02-21T10:27:36.662Z,9.70
2019-02-21T10:30:07.080Z,9.90
2019-02-21T10:32:36.021Z,10.00
2019-02-21T10:35:05.603Z,10.00
2019-02-21T10:37:34.490Z,10.10
2019-02-21T10:40:03.458Z,10.00
2019-02-21T10:42:32.308Z,9.90
2019-02-21T10:45:03.417Z,9.80
2019-02-21T10:47:30.042Z,9.70
2019-02-21T10:49:59.684Z,9.70
2019-02-21T10:52:28.556Z,9.60
2019-02-21T10:54:57.479Z,9.60
2019-02-21T10:57:26.421Z,9.60
2019-02-21T10:59:56.062Z,9.50
2019-02-21T11:02:24.920Z,9.60
2019-02-21T11:04:55.240Z,9.50
2019-02-21T11:07:25.056Z,9.60
2019-02-21T11:09:54.143Z,9.70
2019-02-21T11:12:23.103Z,9.80
2019-02-21T11:14:52.089Z,9.90
2019-02-21T11:17:20.978Z,10.00
2019-02-21T11:19:49.874Z,10.10
2019-02-21T11:22:18.789Z,10.20
2019-02-21T11:24:47.724Z,10.30
2019-02-21T11:27:21.111Z,10.50
2019-02-21T11:29:49.814Z,10.60
2019-02-21T11:32:19.712Z,10.70
2019-02-21T11:34:48.572Z,10.90
2019-02-21T11:37:18.193Z,10.90
2019-02-21T11:39:47.124Z,11.00
2019-02-21T11:42:16.198Z,11.00
2019-02-21T11:44:45.101Z,11.00
2019-02-21T11:47:13.981Z,11.00
2019-02-21T11:49:42.897Z,11.00
2019-02-21T11:52:11.826Z,10.90
2019-02-21T11:54:41.305Z,10.90
2019-02-21T11:57:10.173Z,10.80
2019-02-21T11:59:39.159Z,10.80
2019-02-21T12:02:08.226Z,10.80
2019-02-21T12:04:37.153Z,10.70
2019-02-21T12:07:06.059Z,10.80
2019-02-21T12:09:34.942Z,10.70
2019-02-21T12:12:03.826Z,10.70
2019-02-21T12:14:32.734Z,10.80
2019-02-21T12:17:01.632Z,10.80
2019-02-21T12:19:30.710Z,10.80
2019-02-21T12:21:59.650Z,10.80
2019-02-21T12:24:29.134Z,10.80
2019-02-21T12:26:58.010Z,10.90
2019-02-21T12:29:26.847Z,10.90
2019-02-21T12:31:55.746Z,10.90
2019-02-21T12:34:24.741Z,11.00
2019-02-21T12:36:53.911Z,11.10
2019-02-21T12:39:23.611Z,11.20
2019-02-21T12:41:52.634Z,11.40
2019-02-21T12:44:21.556Z,11.50
2019-02-21T12:46:50.445Z,11.70
2019-02-21T12:49:19.393Z,11.90
2019-02-21T12:51:48.258Z,11.90
2019-02-21T12:54:17.926Z,12.00
2019-02-21T12:56:46.782Z,12.00
2019-02-21T12:59:15.714Z,12.10
2019-02-21T13:01:44.612Z,12.10
2019-02-21T13:04:13.790Z,12.00
2019-02-21T13:06:42.700Z,11.90
2019-02-21T13:09:11.581Z,11.90
2019-02-21T13:11:40.426Z,11.90
2019-02-21T13:14:09.310Z,11.90
2019-02-21T13:16:38.983Z,11.90
2019-02-21T13:19:07.783Z,11.90
2019-02-21T13:24:06.281Z,12.20
2019-02-21T13:26:35.198Z,12.30
2019-02-21T13:29:04.064Z,12.30
2019-02-21T13:31:32.978Z,12.30
2019-02-21T13:36:33.934Z,12.30
2019-02-21T13:39:01.117Z,12.20
2019-02-21T13:41:30.032Z,12.20
2019-02-21T13:43:58.948Z,12.20
2019-02-21T13:46:36.960Z,12.20
2019-02-21T13:48:56.723Z,12.10
2019-02-21T13:51:25.602Z,12.00
2019-02-21T13:53:54.488Z,12.00
2019-02-21T13:56:24.322Z,12.00
2019-02-21T13:58:53.960Z,12.10
2019-02-21T14:01:22.860Z,12.30
2019-02-21T14:03:51.742Z,12.50
2019-02-21T14:06:20.617Z,12.60
2019-02-21T14:08:49.534Z,12.40
2019-02-21T14:11:18.444Z,12.40
2019-02-21T14:13:47.389Z,12.30
2019-02-21T14:16:16.244Z,12.30
2019-02-21T14:18:45.256Z,12.20
2019-02-21T14:21:14.909Z,12.10
2019-02-21T14:23:43.817Z,12.10
2019-02-21T14:26:12.695Z,12.00
2019-02-21T14:28:41.611Z,12.00
2019-02-21T14:31:10.506Z,11.90
2019-02-21T14:33:39.370Z,11.80
2019-02-21T14:36:15.955Z,11.80
2019-02-21T14:38:37.909Z,11.90
2019-02-21T14:41:07.295Z,11.90
2019-02-21T14:43:36.232Z,11.90
2019-02-21T14:46:05.837Z,12.00
2019-02-21T14:48:34.729Z,12.10
2019-02-21T14:51:03.943Z,12.20
2019-02-21T14:53:32.852Z,12.20
2019-02-21T14:56:02.506Z,12.30
2019-02-21T14:58:31.331Z,12.40
2019-02-21T15:01:00.230Z,12.50
2019-02-21T15:03:29.479Z,12.50
2019-02-21T15:05:58.430Z,12.50
2019-02-21T15:08:27.335Z,12.40
2019-02-21T15:10:56.202Z,12.50
2019-02-21T15:13:25.879Z,12.40
2019-02-21T15:15:54.722Z,12.30
2019-02-21T15:18:23.594Z,12.30
2019-02-21T15:20:52.460Z,12.20
2019-02-21T15:23:22.298Z,12.20
2019-02-21T15:25:51.178Z,12.20
2019-02-21T15:28:20.042Z,12.10
2019-02-21T15:30:48.943Z,12.00
2019-02-21T15:33:18.554Z,11.90
2019-02-21T15:35:47.477Z,12.00
2019-02-21T15:38:19.881Z,12.00
2019-02-21T15:40:45.230Z,11.90
2019-02-21T15:43:14.942Z,11.90
2019-02-21T15:45:43.817Z,11.90
2019-02-21T15:48:12.825Z,11.90
2019-02-21T15:50:41.712Z,11.90
2019-02-21T15:53:10.640Z,11.80
2019-02-21T15:55:39.488Z,11.80
2019-02-21T15:58:09.196Z,11.70
2019-02-21T16:00:38.192Z,11.70
2019-02-21T16:03:07.842Z,11.70
2019-02-21T16:05:36.690Z,11.70
2019-02-21T16:08:06.314Z,11.70
2019-02-21T16:10:35.221Z,11.70
2019-02-21T16:13:04.992Z,11.70
2019-02-21T16:15:33.048Z,11.70
2019-02-21T16:18:01.946Z,11.60
2019-02-21T16:20:30.875Z,11.60
2019-02-21T16:23:00.648Z,11.50
2019-02-21T16:25:31.024Z,11.50
2019-02-21T16:27:59.867Z,11.50
2019-02-21T16:30:28.771Z,11.40
2019-02-21T16:32:57.688Z,11.40
2019-02-21T16:35:27.277Z,11.40
2019-02-21T16:37:56.102Z,11.30
2019-02-21T16:40:24.958Z,11.40
2019-02-21T16:42:53.827Z,11.40
2019-02-21T16:45:23.466Z,11.30
2019-02-21T16:47:52.461Z,11.30
2019-02-21T16:50:29.832Z,11.30
2019-02-21T16:52:54.894Z,11.30
2019-02-21T16:55:23.764Z,11.30
2019-02-21T16:57:52.614Z,11.30
2019-02-21T17:00:21.486Z,11.30
2019-02-21T17:02:50.422Z,11.20
2019-02-21T17:05:19.302Z,11.20
2019-02-21T17:07:48.196Z,11.20
2019-02-21T17:10:17.055Z,11.10
2019-02-21T17:12:45.940Z,11.00
2019-02-21T17:15:16.571Z,11.00
2019-02-21T17:17:45.420Z,10.90
2019-02-21T17:20:17.177Z,10.80
2019-02-21T17:22:46.034Z,10.80
2019-02-21T17:25:15.076Z,10.80
2019-02-21T17:27:44.950Z,10.80
2019-02-21T17:30:15.493Z,10.70
2019-02-21T17:32:44.392Z,10.70
2019-02-21T17:35:13.267Z,10.60
2019-02-21T17:37:42.132Z,10.60
2019-02-21T17:42:50.264Z,10.70
2019-02-21T17:45:19.129Z,10.70
2019-02-21T17:47:49.143Z,10.60
2019-02-21T17:52:48.101Z,10.60
2019-02-21T17:55:16.978Z,10.50
2019-02-21T17:57:45.822Z,10.50
2019-02-21T18:00:18.226Z,10.50
2019-02-21T18:02:47.075Z,10.50
2019-02-21T18:05:15.930Z,10.40
2019-02-21T18:07:44.783Z,10.40
2019-02-21T18:10:14.440Z,10.40
2019-02-21T18:12:43.293Z,10.40
2019-02-21T18:15:12.147Z,10.40
2019-02-21T18:17:41.024Z,10.40
2019-02-21T18:20:09.893Z,10.40
2019-02-21T18:22:38.756Z,10.40
2019-02-21T18:25:12.535Z,10.50
2019-02-21T18:27:41.373Z,10.50
2019-02-21T18:30:10.256Z,10.50
2019-02-21T18:32:39.106Z,10.50
2019-02-21T18:35:07.967Z,10.40
2019-02-21T18:37:46.699Z,10.40
2019-02-21T18:40:16.656Z,10.40
2019-02-21T18:42:34.545Z,10.30
2019-02-21T18:45:04.169Z,10.30
2019-02-21T18:47:33.043Z,10.40
2019-02-21T18:50:01.927Z,10.40
2019-02-21T18:52:30.765Z,10.40
2019-02-21T18:54:59.609Z,10.40
2019-02-21T18:57:29.276Z,10.30
2019-02-21T18:59:58.072Z,10.40
2019-02-21T19:02:26.934Z,10.40
2019-02-21T19:04:55.824Z,10.30
2019-02-21T19:07:25.460Z,10.30
2019-02-21T19:09:54.990Z,10.30
2019-02-21T19:12:24.597Z,10.30
2019-02-21T19:14:55.309Z,10.30
2019-02-21T19:17:22.421Z,10.20
2019-02-21T19:19:51.280Z,10.20
2019-02-21T19:22:20.898Z,10.20
2019-02-21T19:24:50.493Z,10.20
2019-02-21T19:27:20.091Z,10.20
2019-02-21T19:29:48.954Z,10.20
2019-02-21T19:32:17.829Z,10.20
2019-02-21T19:34:46.891Z,10.20
2019-02-21T19:37:16.489Z,10.10
2019-02-21T19:39:45.343Z,10.20
2019-02-21T19:42:14.238Z,10.10
2019-02-21T19:44:43.097Z,10.10
2019-02-21T19:47:11.958Z,10.10
2019-02-21T19:49:40.814Z,10.00
2019-02-21T19:52:10.438Z,10.00
2019-02-21T19:54:39.291Z,10.00
2019-02-21T19:57:08.153Z,10.00
2019-02-21T19:59:37.028Z,10.00
2019-02-21T20:02:05.888Z,10.00
2019-02-21T20:04:35.482Z,9.90
2019-02-21T20:07:04.333Z,9.90
2019-02-21T20:09:33.235Z,9.90
2019-02-21T20:12:02.073Z,9.80
2019-02-21T20:14:30.899Z,9.80
2019-02-21T20:16:59.742Z,9.80
2019-02-21T20:19:29.384Z,9.80
2019-02-21T20:21:58.230Z,9.80
2019-02-21T20:24:27.861Z,9.80
2019-02-21T20:26:56.714Z,9.80
2019-02-21T20:29:25.596Z,9.80
2019-02-21T20:31:54.433Z,9.90
2019-02-21T20:34:23.309Z,9.80
2019-02-21T20:36:52.923Z,9.80
2019-02-21T20:39:21.765Z,9.80
2019-02-21T20:41:50.597Z,9.80
2019-02-21T20:44:19.439Z,9.70
2019-02-21T20:46:48.292Z,9.70
2019-02-21T20:49:17.147Z,9.70
2019-02-21T20:51:46.026Z,9.70
2019-02-21T20:54:14.874Z,9.80
2019-02-21T20:59:22.270Z,9.90
2019-02-21T21:01:51.122Z,9.90
2019-02-21T21:04:19.996Z,9.90
2019-02-21T21:06:49.611Z,9.80
2019-02-21T21:09:18.486Z,9.80
2019-02-21T21:11:48.069Z,9.80
2019-02-21T21:16:52.147Z,9.80
2019-02-21T21:19:21.756Z,9.80
2019-02-21T21:21:50.637Z,9.80
2019-02-21T21:24:20.231Z,9.70
2019-02-21T21:26:49.096Z,9.80
2019-02-21T21:29:17.975Z,9.80
2019-02-21T21:34:16.297Z,9.70
2019-02-21T21:36:45.896Z,9.70
2019-02-21T21:39:14.772Z,9.70
2019-02-21T21:44:13.123Z,9.80
2019-02-21T21:46:41.999Z,9.70
2019-02-21T21:49:10.866Z,9.70
2019-02-21T21:51:39.728Z,9.70
2019-02-21T21:54:08.643Z,9.70
2019-02-21T21:56:38.245Z,9.70
2019-02-21T21:59:07.173Z,9.70
2019-02-21T22:01:36.059Z,9.70
2019-02-21T22:04:04.982Z,9.80
2019-02-21T22:06:33.860Z,9.70
2019-02-21T22:09:05.028Z,9.70
2019-02-21T22:11:31.573Z,9.70
2019-02-21T22:14:00.448Z,9.70
2019-02-21T22:16:29.299Z,9.70
2019-02-21T22:18:58.153Z,9.70
2019-02-21T22:21:27.777Z,9.60
2019-02-21T22:23:56.644Z,9.60
2019-02-21T22:26:26.237Z,9.60
2019-02-21T22:28:55.093Z,9.70
2019-02-21T22:31:24.031Z,9.60
2019-02-21T22:33:52.845Z,9.60
2019-02-21T22:36:21.738Z,9.60
2019-02-21T22:38:51.385Z,9.60
2019-02-21T22:41:20.246Z,9.60
2019-02-21T22:43:49.127Z,9.60
2019-02-21T22:46:18.049Z,9.50
2019-02-21T22:48:47.548Z,9.60
2019-02-21T22:51:15.755Z,9.60
2019-02-21T22:53:44.628Z,9.60
2019-02-21T22:56:13.501Z,9.60
2019-02-21T22:58:44.966Z,9.60
2019-02-21T23:01:17.077Z,9.60
2019-02-21T23:03:46.669Z,9.60
2019-02-21T23:09:03.646Z,9.70
2019-02-21T23:11:33.195Z,9.70
2019-02-21T23:16:32.291Z,9.70
2019-02-21T23:19:01.220Z,9.70
2019-02-21T23:21:30.822Z,9.70
2019-02-21T23:24:00.453Z,9.70
2019-02-21T23:26:29.313Z,9.70
2019-02-21T23:28:58.921Z,9.70
2019-02-21T23:31:28.520Z,9.70
2019-02-21T23:33:57.385Z,9.80
2019-02-21T23:36:26.247Z,9.80
2019-02-21T23:38:55.097Z,9.80
2019-02-21T23:41:24.683Z,9.90
2019-02-21T23:43:53.553Z,10.00
2019-02-21T23:46:22.409Z,10.00
2019-02-21T23:48:51.295Z,10.00
2019-02-21T23:51:20.178Z,10.00
2019-02-21T23:53:49.041Z,10.00
2019-02-21T23:56:17.931Z,10.00
2019-02-21T23:58:46.839Z,10.10
